sensor_id;sensor_type;location;lat;lon;timestamp;P1;durP1;ratioP1;P2;durP2;ratioP2
48871;SDS011;36154;51.674;7.824;2023-07-20T00:00:23;1.73;;;1.20;;
48871;SDS011;36154;51.674;7.824;2023-07-20T00:02:52;0.93;;;0.93;;
48871;SDS011;36154;51.674;7.824;2023-07-20T00:05:17;1.70;;;1.00;;
48871;SDS011;36154;51.674;7.824;2023-07-20T00:07:49;1.47;;;0.80;;
48871;SDS011;36154;51.674;7.824;2023-07-20T00:10:17;2.13;;;0.90;;
48871;SDS011;36154;51.674;7.824;2023-07-20T00:12:42;2.53;;;0.90;;
48871;SDS011;36154;51.674;7.824;2023-07-20T00:15:12;1.70;;;0.98;;
48871;SDS011;36154;51.674;7.824;2023-07-20T00:17:38;4.03;;;0.93;;
48871;SDS011;36154;51.674;7.824;2023-07-20T00:20:05;2.35;;;1.20;;
48871;SDS011;36154;51.674;7.824;2023-07-20T00:22:31;2.30;;;0.90;;
48871;SDS011;36154;51.674;7.824;2023-07-20T00:24:56;1.52;;;1.17;;
48871;SDS011;36154;51.674;7.824;2023-07-20T00:27:21;2.00;;;1.10;;
48871;SDS011;36154;51.674;7.824;2023-07-20T00:29:47;1.90;;;1.10;;
48871;SDS011;36154;51.674;7.824;2023-07-20T00:32:12;1.90;;;0.68;;
48871;SDS011;36154;51.674;7.824;2023-07-20T00:34:37;2.10;;;0.90;;
48871;SDS011;36154;51.674;7.824;2023-07-20T00:37:03;0.90;;;0.88;;
48871;SDS011;36154;51.674;7.824;2023-07-20T00:39:28;1.35;;;1.02;;
48871;SDS011;36154;51.674;7.824;2023-07-20T00:41:53;2.00;;;0.73;;
48871;SDS011;36154;51.674;7.824;2023-07-20T00:44:19;2.28;;;1.20;;
48871;SDS011;36154;51.674;7.824;2023-07-20T00:46:44;1.60;;;0.93;;
48871;SDS011;36154;51.674;7.824;2023-07-20T00:49:09;1.80;;;1.30;;
48871;SDS011;36154;51.674;7.824;2023-07-20T00:51:35;1.83;;;1.20;;
48871;SDS011;36154;51.674;7.824;2023-07-20T00:54:00;2.03;;;0.80;;
48871;SDS011;36154;51.674;7.824;2023-07-20T00:56:26;1.40;;;1.10;;
48871;SDS011;36154;51.674;7.824;2023-07-20T00:58:52;1.33;;;0.95;;
48871;SDS011;36154;51.674;7.824;2023-07-20T01:01:17;1.30;;;0.90;;
48871;SDS011;36154;51.674;7.824;2023-07-20T01:03:42;2.50;;;1.05;;
48871;SDS011;36154;51.674;7.824;2023-07-20T01:08:42;2.55;;;1.10;;
48871;SDS011;36154;51.674;7.824;2023-07-20T01:11:20;1.95;;;1.20;;
48871;SDS011;36154;51.674;7.824;2023-07-20T01:14:00;2.08;;;1.65;;
48871;SDS011;36154;51.674;7.824;2023-07-20T01:16:26;2.65;;;1.58;;
48871;SDS011;36154;51.674;7.824;2023-07-20T01:18:52;1.92;;;1.38;;
48871;SDS011;36154;51.674;7.824;2023-07-20T01:21:19;1.83;;;1.73;;
48871;SDS011;36154;51.674;7.824;2023-07-20T01:32:13;2.45;;;1.63;;
48871;SDS011;36154;51.674;7.824;2023-07-20T01:34:41;2.38;;;1.55;;
48871;SDS011;36154;51.674;7.824;2023-07-20T01:37:07;2.38;;;1.08;;
48871;SDS011;36154;51.674;7.824;2023-07-20T01:39:34;1.17;;;1.05;;
48871;SDS011;36154;51.674;7.824;2023-07-20T01:42:01;1.30;;;1.20;;
48871;SDS011;36154;51.674;7.824;2023-07-20T01:44:27;4.63;;;1.20;;
48871;SDS011;36154;51.674;7.824;2023-07-20T01:46:52;3.15;;;1.48;;
48871;SDS011;36154;51.674;7.824;2023-07-20T01:49:18;3.72;;;1.30;;
48871;SDS011;36154;51.674;7.824;2023-07-20T01:51:43;5.82;;;1.55;;
48871;SDS011;36154;51.674;7.824;2023-07-20T01:54:08;1.95;;;1.60;;
48871;SDS011;36154;51.674;7.824;2023-07-20T01:56:33;2.47;;;1.85;;
48871;SDS011;36154;51.674;7.824;2023-07-20T01:58:59;2.53;;;2.00;;
48871;SDS011;36154;51.674;7.824;2023-07-20T02:01:24;2.63;;;2.10;;
48871;SDS011;36154;51.674;7.824;2023-07-20T02:03:50;4.13;;;1.95;;
48871;SDS011;36154;51.674;7.824;2023-07-20T02:06:15;2.53;;;2.00;;
48871;SDS011;36154;51.674;7.824;2023-07-20T02:08:40;3.60;;;1.60;;
48871;SDS011;36154;51.674;7.824;2023-07-20T02:11:05;5.75;;;1.40;;
48871;SDS011;36154;51.674;7.824;2023-07-20T02:13:31;3.15;;;1.55;;
48871;SDS011;36154;51.674;7.824;2023-07-20T02:15:56;1.75;;;1.60;;
48871;SDS011;36154;51.674;7.824;2023-07-20T02:18:21;1.75;;;1.17;;
48871;SDS011;36154;51.674;7.824;2023-07-20T02:20:47;2.88;;;1.33;;
48871;SDS011;36154;51.674;7.824;2023-07-20T02:23:12;1.90;;;1.27;;
48871;SDS011;36154;51.674;7.824;2023-07-20T02:25:37;3.38;;;1.30;;
48871;SDS011;36154;51.674;7.824;2023-07-20T02:28:03;2.80;;;1.23;;
48871;SDS011;36154;51.674;7.824;2023-07-20T02:30:29;1.95;;;1.35;;
48871;SDS011;36154;51.674;7.824;2023-07-20T02:32:54;3.00;;;1.35;;
48871;SDS011;36154;51.674;7.824;2023-07-20T02:35:23;1.95;;;1.67;;
48871;SDS011;36154;51.674;7.824;2023-07-20T02:37:48;2.65;;;1.30;;
48871;SDS011;36154;51.674;7.824;2023-07-20T02:40:14;5.38;;;1.30;;
48871;SDS011;36154;51.674;7.824;2023-07-20T02:42:39;2.88;;;1.63;;
48871;SDS011;36154;51.674;7.824;2023-07-20T02:45:07;2.00;;;1.80;;
48871;SDS011;36154;51.674;7.824;2023-07-20T02:47:32;3.15;;;2.17;;
48871;SDS011;36154;51.674;7.824;2023-07-20T02:49:58;3.08;;;2.25;;
48871;SDS011;36154;51.674;7.824;2023-07-20T02:52:24;2.90;;;2.20;;
48871;SDS011;36154;51.674;7.824;2023-07-20T02:54:49;3.75;;;1.90;;
48871;SDS011;36154;51.674;7.824;2023-07-20T02:57:14;2.75;;;1.85;;
48871;SDS011;36154;51.674;7.824;2023-07-20T02:59:40;3.67;;;1.83;;
48871;SDS011;36154;51.674;7.824;2023-07-20T03:02:05;1.30;;;1.20;;
48871;SDS011;36154;51.674;7.824;2023-07-20T03:04:30;1.77;;;1.67;;
48871;SDS011;36154;51.674;7.824;2023-07-20T03:06:55;5.70;;;2.20;;
48871;SDS011;36154;51.674;7.824;2023-07-20T03:09:21;1.98;;;1.70;;
48871;SDS011;36154;51.674;7.824;2023-07-20T03:11:47;4.55;;;2.15;;
48871;SDS011;36154;51.674;7.824;2023-07-20T03:14:12;3.83;;;2.20;;
48871;SDS011;36154;51.674;7.824;2023-07-20T03:16:37;3.50;;;2.50;;
48871;SDS011;36154;51.674;7.824;2023-07-20T03:19:03;4.55;;;2.38;;
48871;SDS011;36154;51.674;7.824;2023-07-20T03:21:31;3.70;;;2.50;;
48871;SDS011;36154;51.674;7.824;2023-07-20T03:23:56;3.28;;;2.42;;
48871;SDS011;36154;51.674;7.824;2023-07-20T03:26:22;4.38;;;2.53;;
48871;SDS011;36154;51.674;7.824;2023-07-20T03:28:47;4.57;;;2.35;;
48871;SDS011;36154;51.674;7.824;2023-07-20T03:31:13;2.88;;;2.00;;
48871;SDS011;36154;51.674;7.824;2023-07-20T03:33:40;3.13;;;2.40;;
48871;SDS011;36154;51.674;7.824;2023-07-20T03:36:05;6.30;;;2.40;;
48871;SDS011;36154;51.674;7.824;2023-07-20T03:38:30;2.60;;;2.40;;
48871;SDS011;36154;51.674;7.824;2023-07-20T03:40:57;3.33;;;2.58;;
48871;SDS011;36154;51.674;7.824;2023-07-20T03:43:24;2.53;;;2.30;;
48871;SDS011;36154;51.674;7.824;2023-07-20T03:45:50;3.20;;;2.00;;
48871;SDS011;36154;51.674;7.824;2023-07-20T03:48:16;2.72;;;2.30;;
48871;SDS011;36154;51.674;7.824;2023-07-20T03:50:47;4.30;;;2.22;;
48871;SDS011;36154;51.674;7.824;2023-07-20T03:53:14;7.10;;;2.88;;
48871;SDS011;36154;51.674;7.824;2023-07-20T03:55:40;2.35;;;2.15;;
48871;SDS011;36154;51.674;7.824;2023-07-20T03:58:15;5.40;;;2.38;;
48871;SDS011;36154;51.674;7.824;2023-07-20T04:00:47;2.75;;;2.00;;
48871;SDS011;36154;51.674;7.824;2023-07-20T04:03:15;5.75;;;2.63;;
48871;SDS011;36154;51.674;7.824;2023-07-20T04:05:40;4.70;;;2.10;;
48871;SDS011;36154;51.674;7.824;2023-07-20T04:08:06;4.63;;;2.50;;
48871;SDS011;36154;51.674;7.824;2023-07-20T04:10:31;4.07;;;2.40;;
48871;SDS011;36154;51.674;7.824;2023-07-20T04:12:57;3.25;;;2.00;;
48871;SDS011;36154;51.674;7.824;2023-07-20T04:15:22;2.03;;;1.90;;
48871;SDS011;36154;51.674;7.824;2023-07-20T04:17:47;2.28;;;1.80;;
48871;SDS011;36154;51.674;7.824;2023-07-20T04:20:13;5.28;;;2.05;;
48871;SDS011;36154;51.674;7.824;2023-07-20T04:22:38;3.88;;;1.88;;
48871;SDS011;36154;51.674;7.824;2023-07-20T04:25:04;2.13;;;1.77;;
48871;SDS011;36154;51.674;7.824;2023-07-20T04:27:30;2.92;;;1.48;;
48871;SDS011;36154;51.674;7.824;2023-07-20T04:29:55;7.97;;;2.20;;
48871;SDS011;36154;51.674;7.824;2023-07-20T04:32:23;1.50;;;1.40;;
48871;SDS011;36154;51.674;7.824;2023-07-20T04:34:48;2.22;;;1.48;;
48871;SDS011;36154;51.674;7.824;2023-07-20T04:37:14;1.67;;;1.40;;
48871;SDS011;36154;51.674;7.824;2023-07-20T04:39:39;2.30;;;1.58;;
48871;SDS011;36154;51.674;7.824;2023-07-20T04:42:04;4.97;;;1.20;;
48871;SDS011;36154;51.674;7.824;2023-07-20T04:44:30;1.35;;;0.90;;
48871;SDS011;36154;51.674;7.824;2023-07-20T04:46:55;2.78;;;1.33;;
48871;SDS011;36154;51.674;7.824;2023-07-20T04:49:20;1.25;;;1.15;;
48871;SDS011;36154;51.674;7.824;2023-07-20T04:51:46;6.28;;;1.17;;
48871;SDS011;36154;51.674;7.824;2023-07-20T04:54:11;2.85;;;1.40;;
48871;SDS011;36154;51.674;7.824;2023-07-20T04:56:36;4.00;;;1.35;;
48871;SDS011;36154;51.674;7.824;2023-07-20T04:59:02;4.75;;;1.92;;
48871;SDS011;36154;51.674;7.824;2023-07-20T05:01:27;3.88;;;1.48;;
48871;SDS011;36154;51.674;7.824;2023-07-20T05:03:52;6.68;;;1.98;;
48871;SDS011;36154;51.674;7.824;2023-07-20T05:06:18;5.05;;;1.98;;
48871;SDS011;36154;51.674;7.824;2023-07-20T05:08:44;3.92;;;1.63;;
48871;SDS011;36154;51.674;7.824;2023-07-20T05:11:09;3.28;;;1.63;;
48871;SDS011;36154;51.674;7.824;2023-07-20T05:13:35;3.03;;;1.88;;
48871;SDS011;36154;51.674;7.824;2023-07-20T05:16:01;4.93;;;1.90;;
48871;SDS011;36154;51.674;7.824;2023-07-20T05:18:26;2.90;;;1.50;;
48871;SDS011;36154;51.674;7.824;2023-07-20T05:20:52;2.97;;;1.70;;
48871;SDS011;36154;51.674;7.824;2023-07-20T05:23:18;3.22;;;1.95;;
48871;SDS011;36154;51.674;7.824;2023-07-20T05:25:44;3.53;;;1.40;;
48871;SDS011;36154;51.674;7.824;2023-07-20T05:28:10;3.08;;;1.55;;
48871;SDS011;36154;51.674;7.824;2023-07-20T05:30:35;2.70;;;1.77;;
48871;SDS011;36154;51.674;7.824;2023-07-20T05:33:00;2.17;;;1.58;;
48871;SDS011;36154;51.674;7.824;2023-07-20T05:35:26;2.40;;;1.70;;
48871;SDS011;36154;51.674;7.824;2023-07-20T05:37:51;2.70;;;1.90;;
48871;SDS011;36154;51.674;7.824;2023-07-20T05:40:17;1.63;;;1.52;;
48871;SDS011;36154;51.674;7.824;2023-07-20T05:42:46;2.63;;;1.30;;
48871;SDS011;36154;51.674;7.824;2023-07-20T05:45:13;1.38;;;1.27;;
48871;SDS011;36154;51.674;7.824;2023-07-20T05:47:39;1.25;;;1.17;;
48871;SDS011;36154;51.674;7.824;2023-07-20T05:50:07;2.03;;;0.90;;
48871;SDS011;36154;51.674;7.824;2023-07-20T05:52:33;1.60;;;1.40;;
48871;SDS011;36154;51.674;7.824;2023-07-20T05:55:01;4.63;;;1.00;;
48871;SDS011;36154;51.674;7.824;2023-07-20T05:57:28;2.08;;;1.42;;
48871;SDS011;36154;51.674;7.824;2023-07-20T05:59:53;1.20;;;1.08;;
48871;SDS011;36154;51.674;7.824;2023-07-20T06:02:18;2.47;;;1.52;;
48871;SDS011;36154;51.674;7.824;2023-07-20T06:04:44;2.58;;;1.17;;
48871;SDS011;36154;51.674;7.824;2023-07-20T06:07:10;3.15;;;1.23;;
48871;SDS011;36154;51.674;7.824;2023-07-20T06:09:35;2.67;;;1.02;;
48871;SDS011;36154;51.674;7.824;2023-07-20T06:12:01;1.13;;;1.02;;
48871;SDS011;36154;51.674;7.824;2023-07-20T06:14:26;1.67;;;1.08;;
48871;SDS011;36154;51.674;7.824;2023-07-20T06:16:52;1.23;;;1.17;;
48871;SDS011;36154;51.674;7.824;2023-07-20T06:19:17;2.20;;;1.40;;
48871;SDS011;36154;51.674;7.824;2023-07-20T06:21:42;1.35;;;1.27;;
48871;SDS011;36154;51.674;7.824;2023-07-20T06:24:08;1.67;;;1.58;;
48871;SDS011;36154;51.674;7.824;2023-07-20T06:26:33;1.23;;;1.17;;
48871;SDS011;36154;51.674;7.824;2023-07-20T06:29:03;2.70;;;1.23;;
48871;SDS011;36154;51.674;7.824;2023-07-20T06:31:29;1.52;;;1.42;;
48871;SDS011;36154;51.674;7.824;2023-07-20T06:33:54;1.50;;;1.40;;
48871;SDS011;36154;51.674;7.824;2023-07-20T06:36:19;1.80;;;1.70;;
48871;SDS011;36154;51.674;7.824;2023-07-20T06:38:45;1.70;;;1.48;;
48871;SDS011;36154;51.674;7.824;2023-07-20T06:41:10;1.30;;;1.30;;
48871;SDS011;36154;51.674;7.824;2023-07-20T06:43:35;3.25;;;1.50;;
48871;SDS011;36154;51.674;7.824;2023-07-20T06:46:01;1.38;;;1.30;;
48871;SDS011;36154;51.674;7.824;2023-07-20T06:48:26;1.60;;;1.50;;
48871;SDS011;36154;51.674;7.824;2023-07-20T06:50:51;2.33;;;1.30;;
48871;SDS011;36154;51.674;7.824;2023-07-20T06:53:17;1.80;;;1.70;;
48871;SDS011;36154;51.674;7.824;2023-07-20T06:55:42;4.07;;;1.65;;
48871;SDS011;36154;51.674;7.824;2023-07-20T06:58:08;1.48;;;1.48;;
48871;SDS011;36154;51.674;7.824;2023-07-20T07:00:33;2.10;;;1.77;;
48871;SDS011;36154;51.674;7.824;2023-07-20T07:02:58;1.42;;;1.42;;
48871;SDS011;36154;51.674;7.824;2023-07-20T07:05:24;1.67;;;1.58;;
48871;SDS011;36154;51.674;7.824;2023-07-20T07:07:49;2.20;;;2.10;;
48871;SDS011;36154;51.674;7.824;2023-07-20T07:10:14;2.97;;;2.78;;
48871;SDS011;36154;51.674;7.824;2023-07-20T07:12:40;2.33;;;2.20;;
48871;SDS011;36154;51.674;7.824;2023-07-20T07:15:06;2.67;;;2.17;;
48871;SDS011;36154;51.674;7.824;2023-07-20T07:17:31;2.50;;;2.40;;
48871;SDS011;36154;51.674;7.824;2023-07-20T07:19:58;1.98;;;1.88;;
48871;SDS011;36154;51.674;7.824;2023-07-20T07:22:23;2.53;;;2.40;;
48871;SDS011;36154;51.674;7.824;2023-07-20T07:24:48;2.67;;;2.47;;
48871;SDS011;36154;51.674;7.824;2023-07-20T07:27:14;3.58;;;2.25;;
48871;SDS011;36154;51.674;7.824;2023-07-20T07:29:41;1.75;;;1.75;;
48871;SDS011;36154;51.674;7.824;2023-07-20T07:32:09;1.88;;;1.65;;
48871;SDS011;36154;51.674;7.824;2023-07-20T07:34:35;1.67;;;1.67;;
48871;SDS011;36154;51.674;7.824;2023-07-20T07:37:00;1.98;;;1.88;;
48871;SDS011;36154;51.674;7.824;2023-07-20T07:39:25;1.75;;;1.65;;
48871;SDS011;36154;51.674;7.824;2023-07-20T07:41:51;1.50;;;1.40;;
48871;SDS011;36154;51.674;7.824;2023-07-20T07:44:17;1.70;;;1.60;;
48871;SDS011;36154;51.674;7.824;2023-07-20T07:46:42;1.70;;;1.20;;
48871;SDS011;36154;51.674;7.824;2023-07-20T07:49:08;1.55;;;1.45;;
48871;SDS011;36154;51.674;7.824;2023-07-20T07:51:33;2.65;;;1.38;;
48871;SDS011;36154;51.674;7.824;2023-07-20T07:53:58;4.88;;;1.40;;
48871;SDS011;36154;51.674;7.824;2023-07-20T07:56:24;2.70;;;1.55;;
48871;SDS011;36154;51.674;7.824;2023-07-20T07:58:49;1.25;;;1.00;;
48871;SDS011;36154;51.674;7.824;2023-07-20T08:01:16;2.03;;;1.30;;
48871;SDS011;36154;51.674;7.824;2023-07-20T08:03:43;1.05;;;1.05;;
48871;SDS011;36154;51.674;7.824;2023-07-20T08:06:11;1.10;;;1.10;;
48871;SDS011;36154;51.674;7.824;2023-07-20T08:08:39;2.20;;;0.88;;
48871;SDS011;36154;51.674;7.824;2023-07-20T08:11:07;1.20;;;1.20;;
48871;SDS011;36154;51.674;7.824;2023-07-20T08:13:32;1.02;;;1.02;;
48871;SDS011;36154;51.674;7.824;2023-07-20T08:15:58;1.73;;;1.00;;
48871;SDS011;36154;51.674;7.824;2023-07-20T08:18:23;1.33;;;0.90;;
48871;SDS011;36154;51.674;7.824;2023-07-20T08:20:49;0.90;;;0.90;;
48871;SDS011;36154;51.674;7.824;2023-07-20T08:23:14;1.30;;;1.20;;
48871;SDS011;36154;51.674;7.824;2023-07-20T08:25:40;2.67;;;1.20;;
48871;SDS011;36154;51.674;7.824;2023-07-20T08:28:09;1.17;;;1.10;;
48871;SDS011;36154;51.674;7.824;2023-07-20T08:30:46;3.22;;;1.10;;
48871;SDS011;36154;51.674;7.824;2023-07-20T08:33:16;3.03;;;1.13;;
48871;SDS011;36154;51.674;7.824;2023-07-20T08:35:46;1.33;;;1.23;;
48871;SDS011;36154;51.674;7.824;2023-07-20T08:38:12;1.08;;;1.08;;
48871;SDS011;36154;51.674;7.824;2023-07-20T08:40:47;1.33;;;1.20;;
48871;SDS011;36154;51.674;7.824;2023-07-20T08:43:12;0.70;;;0.70;;
48871;SDS011;36154;51.674;7.824;2023-07-20T08:45:39;0.73;;;0.73;;
48871;SDS011;36154;51.674;7.824;2023-07-20T08:48:05;1.95;;;1.00;;
48871;SDS011;36154;51.674;7.824;2023-07-20T08:50:32;1.38;;;0.90;;
48871;SDS011;36154;51.674;7.824;2023-07-20T08:52:58;0.90;;;0.90;;
48871;SDS011;36154;51.674;7.824;2023-07-20T08:55:28;0.80;;;0.80;;
48871;SDS011;36154;51.674;7.824;2023-07-20T08:57:55;0.80;;;0.80;;
48871;SDS011;36154;51.674;7.824;2023-07-20T09:00:22;1.10;;;1.00;;
48871;SDS011;36154;51.674;7.824;2023-07-20T09:02:49;0.70;;;0.70;;
48871;SDS011;36154;51.674;7.824;2023-07-20T09:05:16;0.50;;;0.50;;
48871;SDS011;36154;51.674;7.824;2023-07-20T09:07:42;0.75;;;0.50;;
48871;SDS011;36154;51.674;7.824;2023-07-20T09:10:08;0.80;;;0.65;;
48871;SDS011;36154;51.674;7.824;2023-07-20T09:12:40;1.23;;;0.70;;
48871;SDS011;36154;51.674;7.824;2023-07-20T09:15:07;0.70;;;0.70;;
48871;SDS011;36154;51.674;7.824;2023-07-20T09:17:33;1.17;;;0.65;;
48871;SDS011;36154;51.674;7.824;2023-07-20T09:20:01;0.75;;;0.60;;
48871;SDS011;36154;51.674;7.824;2023-07-20T09:22:32;0.70;;;0.70;;
48871;SDS011;36154;51.674;7.824;2023-07-20T09:24:58;0.40;;;0.40;;
48871;SDS011;36154;51.674;7.824;2023-07-20T09:27:37;2.40;;;0.60;;
48871;SDS011;36154;51.674;7.824;2023-07-20T09:30:03;0.85;;;0.60;;
48871;SDS011;36154;51.674;7.824;2023-07-20T09:32:29;0.77;;;0.63;;
48871;SDS011;36154;51.674;7.824;2023-07-20T09:34:54;0.40;;;0.40;;
48871;SDS011;36154;51.674;7.824;2023-07-20T09:37:20;0.30;;;0.30;;
48871;SDS011;36154;51.674;7.824;2023-07-20T09:39:47;0.43;;;0.40;;
48871;SDS011;36154;51.674;7.824;2023-07-20T09:42:14;1.38;;;0.40;;
48871;SDS011;36154;51.674;7.824;2023-07-20T09:44:39;0.50;;;0.50;;
48871;SDS011;36154;51.674;7.824;2023-07-20T09:47:08;0.47;;;0.47;;
48871;SDS011;36154;51.674;7.824;2023-07-20T09:49:37;0.40;;;0.30;;
48871;SDS011;36154;51.674;7.824;2023-07-20T09:52:04;1.23;;;0.45;;
48871;SDS011;36154;51.674;7.824;2023-07-20T09:54:30;0.90;;;0.50;;
48871;SDS011;36154;51.674;7.824;2023-07-20T09:56:57;0.30;;;0.30;;
48871;SDS011;36154;51.674;7.824;2023-07-20T09:59:23;2.45;;;0.43;;
48871;SDS011;36154;51.674;7.824;2023-07-20T10:01:49;0.30;;;0.30;;
48871;SDS011;36154;51.674;7.824;2023-07-20T10:04:16;0.20;;;0.20;;
48871;SDS011;36154;51.674;7.824;2023-07-20T10:06:43;1.67;;;0.30;;
48871;SDS011;36154;51.674;7.824;2023-07-20T10:09:15;0.20;;;0.20;;
48871;SDS011;36154;51.674;7.824;2023-07-20T10:11:41;0.45;;;0.20;;
48871;SDS011;36154;51.674;7.824;2023-07-20T10:14:11;0.55;;;0.20;;
48871;SDS011;36154;51.674;7.824;2023-07-20T10:16:43;10.70;;;2.20;;
48871;SDS011;36154;51.674;7.824;2023-07-20T10:19:22;319.17;;;92.30;;
48871;SDS011;36154;51.674;7.824;2023-07-20T10:21:56;253.48;;;78.40;;
48871;SDS011;36154;51.674;7.824;2023-07-20T10:24:27;187.98;;;60.08;;
48871;SDS011;36154;51.674;7.824;2023-07-20T10:26:54;154.77;;;52.15;;
48871;SDS011;36154;51.674;7.824;2023-07-20T10:29:20;142.68;;;46.58;;
48871;SDS011;36154;51.674;7.824;2023-07-20T10:31:47;115.45;;;40.88;;
48871;SDS011;36154;51.674;7.824;2023-07-20T10:34:13;106.25;;;35.90;;
48871;SDS011;36154;51.674;7.824;2023-07-20T10:36:45;71.05;;;25.98;;
48871;SDS011;36154;51.674;7.824;2023-07-20T10:39:26;69.07;;;26.92;;
48871;SDS011;36154;51.674;7.824;2023-07-20T10:42:08;60.17;;;22.83;;
48871;SDS011;36154;51.674;7.824;2023-07-20T10:44:37;65.88;;;24.33;;
48871;SDS011;36154;51.674;7.824;2023-07-20T10:47:03;59.65;;;22.13;;
48871;SDS011;36154;51.674;7.824;2023-07-20T10:49:34;45.78;;;19.23;;
48871;SDS011;36154;51.674;7.824;2023-07-20T10:52:03;42.30;;;18.25;;
48871;SDS011;36154;51.674;7.824;2023-07-20T10:56:56;41.30;;;16.88;;
48871;SDS011;36154;51.674;7.824;2023-07-20T11:01:48;41.93;;;14.63;;
48871;SDS011;36154;51.674;7.824;2023-07-20T11:04:16;34.05;;;13.55;;
48871;SDS011;36154;51.674;7.824;2023-07-20T11:06:44;33.67;;;13.75;;
48871;SDS011;36154;51.674;7.824;2023-07-20T11:09:10;30.67;;;13.40;;
48871;SDS011;36154;51.674;7.824;2023-07-20T11:11:49;31.15;;;12.68;;
48871;SDS011;36154;51.674;7.824;2023-07-20T11:14:22;27.85;;;11.88;;
48871;SDS011;36154;51.674;7.824;2023-07-20T11:16:49;20.25;;;9.20;;
48871;SDS011;36154;51.674;7.824;2023-07-20T11:19:20;15.57;;;7.38;;
48871;SDS011;36154;51.674;7.824;2023-07-20T11:21:55;19.30;;;8.10;;
48871;SDS011;36154;51.674;7.824;2023-07-20T11:24:22;12.05;;;5.68;;
48871;SDS011;36154;51.674;7.824;2023-07-20T11:29:18;13.38;;;6.22;;
48871;SDS011;36154;51.674;7.824;2023-07-20T11:31:45;11.20;;;5.38;;
48871;SDS011;36154;51.674;7.824;2023-07-20T11:34:12;10.30;;;5.15;;
48871;SDS011;36154;51.674;7.824;2023-07-20T11:36:42;9.38;;;4.55;;
48871;SDS011;36154;51.674;7.824;2023-07-20T11:39:09;6.38;;;3.33;;
48871;SDS011;36154;51.674;7.824;2023-07-20T11:41:35;6.47;;;3.50;;
48871;SDS011;36154;51.674;7.824;2023-07-20T11:44:01;4.22;;;3.08;;
48871;SDS011;36154;51.674;7.824;2023-07-20T11:46:27;5.68;;;3.10;;
48871;SDS011;36154;51.674;7.824;2023-07-20T11:48:57;4.85;;;3.15;;
48871;SDS011;36154;51.674;7.824;2023-07-20T11:51:25;5.03;;;3.20;;
48871;SDS011;36154;51.674;7.824;2023-07-20T11:53:52;2.60;;;2.40;;
48871;SDS011;36154;51.674;7.824;2023-07-20T11:56:17;3.75;;;2.72;;
48871;SDS011;36154;51.674;7.824;2023-07-20T11:58:45;3.20;;;2.45;;
48871;SDS011;36154;51.674;7.824;2023-07-20T12:01:14;3.97;;;2.47;;
48871;SDS011;36154;51.674;7.824;2023-07-20T12:03:43;3.92;;;2.30;;
48871;SDS011;36154;51.674;7.824;2023-07-20T12:06:09;2.55;;;1.90;;
48871;SDS011;36154;51.674;7.824;2023-07-20T12:08:39;3.92;;;1.80;;
48871;SDS011;36154;51.674;7.824;2023-07-20T12:11:06;2.05;;;1.80;;
48871;SDS011;36154;51.674;7.824;2023-07-20T12:13:35;1.77;;;1.67;;
48871;SDS011;36154;51.674;7.824;2023-07-20T12:16:10;2.72;;;1.50;;
48871;SDS011;36154;51.674;7.824;2023-07-20T12:18:44;1.52;;;1.40;;
48871;SDS011;36154;51.674;7.824;2023-07-20T12:21:10;1.30;;;1.20;;
48871;SDS011;36154;51.674;7.824;2023-07-20T12:23:39;1.48;;;1.38;;
48871;SDS011;36154;51.674;7.824;2023-07-20T12:26:06;2.25;;;1.00;;
48871;SDS011;36154;51.674;7.824;2023-07-20T12:28:33;1.42;;;1.00;;
48871;SDS011;36154;51.674;7.824;2023-07-20T12:31:03;2.95;;;1.02;;
48871;SDS011;36154;51.674;7.824;2023-07-20T12:33:29;1.15;;;1.05;;
48871;SDS011;36154;51.674;7.824;2023-07-20T12:35:54;1.30;;;0.80;;
48871;SDS011;36154;51.674;7.824;2023-07-20T12:38:21;1.02;;;0.93;;
48871;SDS011;36154;51.674;7.824;2023-07-20T12:40:47;0.75;;;0.60;;
48871;SDS011;36154;51.674;7.824;2023-07-20T12:43:12;0.68;;;0.65;;
48871;SDS011;36154;51.674;7.824;2023-07-20T12:45:38;0.73;;;0.70;;
48871;SDS011;36154;51.674;7.824;2023-07-20T12:48:03;0.80;;;0.47;;
48871;SDS011;36154;51.674;7.824;2023-07-20T12:50:28;0.73;;;0.43;;
48871;SDS011;36154;51.674;7.824;2023-07-20T12:52:54;0.60;;;0.60;;
48871;SDS011;36154;51.674;7.824;2023-07-20T12:55:20;1.42;;;0.40;;
48871;SDS011;36154;51.674;7.824;2023-07-20T12:57:45;1.40;;;0.40;;
48871;SDS011;36154;51.674;7.824;2023-07-20T13:00:11;0.35;;;0.30;;
48871;SDS011;36154;51.674;7.824;2023-07-20T13:02:37;0.47;;;0.47;;
48871;SDS011;36154;51.674;7.824;2023-07-20T13:05:03;0.77;;;0.30;;
48871;SDS011;36154;51.674;7.824;2023-07-20T13:07:32;0.95;;;0.60;;
48871;SDS011;36154;51.674;7.824;2023-07-20T13:10:00;0.85;;;0.43;;
48871;SDS011;36154;51.674;7.824;2023-07-20T13:12:30;0.77;;;0.52;;
48871;SDS011;36154;51.674;7.824;2023-07-20T13:14:57;0.52;;;0.52;;
48871;SDS011;36154;51.674;7.824;2023-07-20T13:17:25;0.95;;;0.32;;
48871;SDS011;36154;51.674;7.824;2023-07-20T13:19:51;0.40;;;0.40;;
48871;SDS011;36154;51.674;7.824;2023-07-20T13:22:16;1.00;;;0.22;;
48871;SDS011;36154;51.674;7.824;2023-07-20T13:24:44;0.35;;;0.30;;
48871;SDS011;36154;51.674;7.824;2023-07-20T13:27:10;1.13;;;0.40;;
48871;SDS011;36154;51.674;7.824;2023-07-20T13:29:35;1.55;;;0.32;;
48871;SDS011;36154;51.674;7.824;2023-07-20T13:32:02;1.02;;;0.30;;
48871;SDS011;36154;51.674;7.824;2023-07-20T13:34:29;0.32;;;0.30;;
48871;SDS011;36154;51.674;7.824;2023-07-20T13:36:54;0.30;;;0.30;;
48871;SDS011;36154;51.674;7.824;2023-07-20T13:39:19;2.45;;;0.32;;
48871;SDS011;36154;51.674;7.824;2023-07-20T13:41:45;0.25;;;0.25;;
48871;SDS011;36154;51.674;7.824;2023-07-20T13:44:10;0.25;;;0.20;;
48871;SDS011;36154;51.674;7.824;2023-07-20T13:46:35;0.90;;;0.30;;
48871;SDS011;36154;51.674;7.824;2023-07-20T13:49:01;0.35;;;0.30;;
48871;SDS011;36154;51.674;7.824;2023-07-20T13:51:26;0.20;;;0.20;;
48871;SDS011;36154;51.674;7.824;2023-07-20T13:53:51;0.30;;;0.30;;
48871;SDS011;36154;51.674;7.824;2023-07-20T13:56:17;0.20;;;0.20;;
48871;SDS011;36154;51.674;7.824;2023-07-20T13:58:42;2.10;;;0.40;;
48871;SDS011;36154;51.674;7.824;2023-07-20T14:01:07;2.78;;;0.30;;
48871;SDS011;36154;51.674;7.824;2023-07-20T14:03:32;2.50;;;0.30;;
48871;SDS011;36154;51.674;7.824;2023-07-20T14:05:58;5.97;;;0.32;;
48871;SDS011;36154;51.674;7.824;2023-07-20T14:08:23;0.22;;;0.22;;
48871;SDS011;36154;51.674;7.824;2023-07-20T14:10:48;0.43;;;0.43;;
48871;SDS011;36154;51.674;7.824;2023-07-20T14:13:14;1.55;;;0.77;;
48871;SDS011;36154;51.674;7.824;2023-07-20T14:15:39;1.85;;;0.40;;
48871;SDS011;36154;51.674;7.824;2023-07-20T14:18:04;2.10;;;0.38;;
48871;SDS011;36154;51.674;7.824;2023-07-20T14:20:30;0.38;;;0.38;;
48871;SDS011;36154;51.674;7.824;2023-07-20T14:22:55;1.10;;;0.30;;
48871;SDS011;36154;51.674;7.824;2023-07-20T14:25:20;1.05;;;0.32;;
48871;SDS011;36154;51.674;7.824;2023-07-20T14:27:46;0.95;;;0.30;;
48871;SDS011;36154;51.674;7.824;2023-07-20T14:30:13;1.90;;;0.20;;
48871;SDS011;36154;51.674;7.824;2023-07-20T14:32:40;0.63;;;0.40;;
48871;SDS011;36154;51.674;7.824;2023-07-20T14:35:06;0.22;;;0.22;;
48871;SDS011;36154;51.674;7.824;2023-07-20T14:37:32;0.40;;;0.30;;
48871;SDS011;36154;51.674;7.824;2023-07-20T14:39:57;0.17;;;0.17;;
48871;SDS011;36154;51.674;7.824;2023-07-20T14:42:22;1.60;;;0.50;;
48871;SDS011;36154;51.674;7.824;2023-07-20T14:44:48;0.30;;;0.30;;
48871;SDS011;36154;51.674;7.824;2023-07-20T14:47:13;1.75;;;0.25;;
48871;SDS011;36154;51.674;7.824;2023-07-20T14:49:38;0.45;;;0.25;;
48871;SDS011;36154;51.674;7.824;2023-07-20T14:52:04;0.55;;;0.22;;
48871;SDS011;36154;51.674;7.824;2023-07-20T14:54:29;0.60;;;0.40;;
48871;SDS011;36154;51.674;7.824;2023-07-20T14:56:55;2.95;;;0.40;;
48871;SDS011;36154;51.674;7.824;2023-07-20T14:59:21;0.32;;;0.25;;